Date,TemperatureHighF,TemperatureAvgF,TemperatureLowF,DewpointHighF,DewpointAvgF,DewpointLowF,HumidityHigh,HumidityAvg,HumidityLow,PressureMaxIn,PressureMinIn,WindSpeedMaxMPH,WindSpeedAvgMPH,GustSpeedMaxMPH,PrecipitationSumIn
2013-1-1,12.0,-0.2,-13.0,9.0,-6.2,-20.0,88,75,64,0.00,40.00,5,4,12,0.00
2013-1-2,19.0,16.4,11.0,17.0,13.6,8.0,91,89,87,0.00,40.00,5,4,12,0.00
2013-1-3,19.0,12.5,6.0,17.0,6.5,2.0,91,77,54,0.00,40.00,11,6,22,0.01
2013-1-4,24.0,16.7,11.0,18.0,12.4,7.0,92,83,71,0.00,40.00,8,5,17,0.01
2013-1-5,20.0,14.9,8.0,17.0,11.9,4.0,91,87,77,0.00,40.00,3,2,6,0.00
2013-1-6,21.0,14.3,9.0,16.0,8.6,5.0,90,78,61,0.00,40.00,8,4,15,0.02
2013-1-7,32.0,24.2,15.0,24.0,17.4,6.0,83,75,63,0.00,40.00,12,8,27,0.01
2013-1-8,33.0,27.5,18.0,27.0,20.8,16.0,94,77,59,0.00,40.00,8,5,17,0.02
2013-1-9,29.0,24.8,20.0,27.0,20.5,14.0,93,83,76,0.00,40.00,11,7,30,0.01
2013-1-10,47.0,34.3,19.0,30.0,18.4,8.0,91,55,27,0.00,40.00,12,9,27,0.45
2013-1-11,34.0,33.1,32.0,34.0,32.4,30.0,98,97,91,0.00,40.00,8,4,18,0.72
2013-1-12,35.0,15.3,1.0,35.0,11.4,-4.0,99,84,72,0.00,40.00,6,1,11,0.08
2013-1-13,5.0,-0.7,-6.0,-3.0,-6.8,-12.0,79,75,66,0.00,40.00,0,0,0,0.02
2013-1-14,4.0,-0.2,-4.0,-3.0,-6.5,-10.0,78,74,64,0.00,40.00,0,0,0,0.00
2013-1-15,20.0,11.1,3.0,7.0,2.2,-3.0,80,68,49,0.00,40.00,5,1,15,0.00
2013-1-16,22.0,10.6,-10.0,20.0,2.9,-19.0,92,72,51,0.00,40.00,5,3,18,0.00
2013-1-17,3.0,-8.5,-18.0,-12.0,-18.8,-26.0,74,60,46,0.00,40.00,2,1,9,0.00
2013-1-18,15.0,4.7,-10.0,11.0,0.0,-16.0,87,80,73,0.00,40.00,0,0,1,0.00
2013-1-19,21.0,8.9,-8.0,19.0,4.5,-15.0,92,82,71,0.00,40.00,5,2,19,0.00
2013-1-20,-1.0,-10.7,-16.0,-13.0,-18.6,-24.0,72,67,55,0.00,40.00,1,1,9,0.00
2013-1-21,-14.0,-19.5,-26.0,-22.0,-28.9,-35.0,67,61,54,0.00,40.00,2,1,9,0.00
2013-1-22,-5.0,-16.2,-28.0,-16.0,-25.5,-37.0,71,62,53,0.00,40.00,1,0,4,0.00
2013-1-23,-5.0,-11.3,-22.0,-13.0,-19.6,-30.0,71,66,54,0.00,40.00,4,1,17,0.00
2013-1-24,1.0,-12.9,-26.0,-5.0,-22.4,-35.0,76,62,49,0.00,40.00,3,1,11,0.00
2013-1-25,12.0,4.1,-5.0,3.0,-2.0,-11.0,80,75,67,0.00,40.00,5,2,15,0.00
2013-1-26,16.0,4.6,-9.0,10.0,-1.7,-15.0,80,75,70,0.00,40.00,7,3,14,0.00
2013-1-27,31.0,20.7,9.0,20.0,12.1,4.0,80,70,51,0.00,40.00,6,4,12,0.16
2013-1-28,37.0,28.8,25.0,28.0,24.9,20.0,96,86,67,0.00,40.00,7,4,14,0.05
2013-1-29,30.0,25.8,18.0,28.0,23.5,15.0,96,91,82,0.00,40.00,6,4,14,0.01
2013-1-30,18.0,8.2,1.0,15.0,2.8,-4.0,89,78,68,0.00,40.00,7,6,15,0.00
2013-1-31,2.0,-3.4,-15.0,-4.0,-12.0,-22.0,77,66,58,0.00,40.00,8,6,17,0.00
2013-2-1,-1.0,-14.7,-28.0,-17.0,-24.9,-37.0,71,59,45,0.00,40.00,6,3,12,0.00
2013-2-2,6.0,-2.5,-17.0,-7.0,-12.9,-25.0,75,61,44,0.00,40.00,4,3,8,0.00
2013-2-3,6.0,-2.6,-12.0,-5.0,-11.4,-18.0,77,66,45,0.00,40.00,7,5,16,0.00
2013-2-4,5.0,-0.4,-18.0,-1.0,-10.0,-25.0,78,63,50,0.00,40.00,6,4,11,0.00
2013-2-5,14.0,5.0,-3.0,1.0,-3.1,-9.0,81,69,49,0.00,40.00,6,4,13,0.01
2013-2-6,19.0,10.3,-3.0,13.0,2.8,-9.0,88,72,50,0.00,40.00,5,3,8,0.01
2013-2-7,20.0,10.4,3.0,10.0,4.5,-2.0,86,77,63,0.00,40.00,5,3,9,0.01
2013-2-8,25.0,15.1,9.0,13.0,8.6,5.0,85,76,55,0.00,40.00,7,4,15,0.01
2013-2-9,24.0,20.5,14.0,23.0,16.7,10.0,94,85,73,0.00,40.00,8,6,18,0.00
2013-2-10,26.0,24.3,23.0,24.0,22.5,21.0,94,93,89,0.00,40.00,9,6,19,0.00
2013-2-11,24.0,19.1,16.0,22.0,15.5,13.0,93,86,78,0.00,40.00,7,5,18,0.00
2013-2-12,27.0,17.4,9.0,22.0,13.7,6.0,90,85,75,0.00,40.00,6,4,12,0.02
2013-2-13,31.0,22.2,15.0,25.0,19.5,13.0,92,89,77,0.00,40.00,5,3,10,0.02
2013-2-14,24.0,15.1,8.0,22.0,7.3,-1.0,93,72,48,0.00,40.00,8,4,16,0.01
2013-2-15,10.0,2.3,-6.0,0.0,-6.0,-12.0,81,68,47,0.00,40.00,7,4,15,0.00
2013-2-16,18.0,7.4,-6.0,0.0,-5.9,-12.0,78,55,37,0.00,40.00,4,3,8,0.00
2013-2-17,23.0,13.2,-2.0,16.0,5.5,-10.0,82,71,56,0.00,40.00,11,8,20,0.00
2013-2-18,25.0,17.9,2.0,20.0,12.3,-4.0,89,79,68,0.00,40.00,9,5,20,0.00
2013-2-19,7.0,-3.0,-11.0,-4.0,-12.5,-19.0,76,64,51,0.00,40.00,10,8,23,0.00
2013-2-20,14.0,-2.0,-16.0,-13.0,-17.5,-23.0,74,50,23,0.00,40.00,6,4,12,0.01
2013-2-21,25.0,6.7,-10.0,5.0,-7.8,-18.0,82,53,27,0.00,40.00,6,5,11,0.03
2013-2-22,28.0,19.1,9.0,23.0,15.0,5.0,91,83,72,0.00,40.00,6,5,12,0.01
2013-2-23,36.0,23.4,11.0,20.0,15.4,8.0,90,73,49,0.00,40.00,5,3,11,0.25
2013-2-24,42.0,29.3,13.0,22.0,16.6,10.0,91,62,37,0.00,40.00,4,3,10,0.18
2013-2-25,37.0,23.7,15.0,22.0,18.0,13.0,93,79,54,0.00,40.00,6,4,15,0.03
2013-2-26,47.0,32.8,15.0,24.0,17.5,13.0,92,57,31,0.00,40.00,5,3,10,0.02
2013-2-27,33.0,27.5,19.0,21.0,18.8,16.0,92,70,57,0.00,40.00,7,5,17,0.02
2013-2-28,30.0,22.1,14.0,18.0,9.8,1.0,77,60,42,0.00,40.00,7,5,21,0.00
2013-3-1,25.0,14.1,3.0,1.0,-8.2,-13.0,60,39,18,0.00,40.00,6,4,12,0.00
2013-3-2,31.0,13.2,0.0,-12.0,-19.4,-25.0,38,24,9,0.00,40.00,5,3,8,0.00
2013-3-3,37.0,19.9,1.0,5.0,-3.6,-24.0,73,38,17,0.00,40.00,6,4,12,0.00
2013-3-4,32.0,18.8,7.0,15.0,6.6,-6.0,77,59,34,0.00,40.00,9,6,17,0.00
2013-3-5,24.0,18.6,15.0,13.0,9.5,5.0,85,68,47,0.00,40.00,8,5,14,0.00
2013-3-6,28.0,17.1,6.0,12.0,8.4,2.0,85,70,47,0.00,40.00,6,3,13,0.09
2013-3-7,36.0,21.5,8.0,11.0,9.1,5.0,89,62,34,0.00,40.00,7,4,14,0.04
2013-3-8,30.0,22.8,15.0,21.0,16.8,10.0,91,78,68,0.00,40.00,7,4,13,0.02
2013-3-9,32.0,28.8,25.0,31.0,26.7,21.0,97,92,83,0.00,40.00,6,4,10,0.00
2013-3-10,30.0,25.6,19.0,29.0,21.4,14.0,97,84,70,0.00,40.00,6,4,13,0.03
2013-3-11,25.0,19.7,16.0,16.0,14.3,13.0,86,79,66,0.00,40.00,6,4,13,0.02
2013-3-12,21.0,14.1,6.0,14.0,5.9,1.0,86,70,51,0.00,40.00,8,5,16,0.01
2013-3-13,33.0,18.0,4.0,10.0,3.8,-3.0,76,56,34,0.00,40.00,5,4,12,0.20
2013-3-14,36.0,25.3,11.0,27.0,16.1,4.0,88,68,52,0.00,40.00,8,5,15,0.13
2013-3-15,29.0,16.7,8.0,26.0,4.0,-6.0,88,60,30,0.00,40.00,7,4,17,0.04
2013-3-16,17.0,6.7,-3.0,2.0,-4.3,-11.0,79,62,37,0.00,40.00,9,5,24,0.00
2013-3-17,26.0,8.1,-11.0,7.0,-8.3,-17.0,74,51,23,0.00,40.00,9,5,18,0.01
2013-3-18,28.0,21.8,16.0,24.0,17.1,7.0,91,82,57,0.00,40.00,9,6,22,0.01
2013-3-19,20.0,13.6,8.0,17.0,5.9,1.0,89,72,55,0.00,40.00,12,9,24,0.00
2013-3-20,17.0,10.1,3.0,4.0,0.6,-3.0,78,65,51,0.00,40.00,8,6,18,0.00
2013-3-21,33.0,18.9,9.0,10.0,5.3,2.0,74,57,38,0.00,40.00,5,4,12,0.20
2013-3-22,40.0,23.0,11.0,19.0,11.4,3.0,84,63,37,0.00,40.00,5,4,12,0.08
2013-3-23,36.0,24.8,10.0,25.0,14.9,8.0,91,68,48,0.00,40.00,5,4,10,0.01
2013-3-24,30.0,25.8,19.0,17.0,14.4,10.0,72,62,51,0.00,40.00,6,4,14,0.00
2013-3-25,40.0,25.8,13.0,18.0,13.1,8.0,83,60,37,0.00,40.00,7,4,16,0.00
2013-3-26,44.0,32.3,24.0,24.0,18.2,13.0,81,58,33,0.00,40.00,5,3,10,0.00
2013-3-27,43.0,34.3,28.0,20.0,15.2,10.0,64,48,27,0.00,40.00,4,3,10,0.00
2013-3-28,50.0,42.7,32.0,13.0,9.4,6.0,37,26,19,0.00,40.00,5,3,10,0.00
2013-3-29,52.0,39.7,24.0,26.0,17.4,7.0,60,42,26,0.00,40.00,7,4,15,0.00
2013-3-30,55.0,43.1,33.0,36.0,22.8,-99.9,95,53,23,0.00,40.00,7,5,17,0.00
2013-3-31,34.0,27.5,19.0,22.0,11.2,0.0,85,51,31,0.00,40.00,11,7,25,0.00
2013-4-1,33.0,21.8,10.0,4.0,1.1,-2.0,66,42,25,0.00,40.00,11,6,24,0.00
2013-4-2,33.0,21.5,11.0,7.0,0.5,-7.0,73,44,20,0.00,40.00,8,4,16,0.00
2013-4-3,43.0,28.3,12.0,23.0,4.0,-7.0,58,36,24,0.00,40.00,10,6,24,0.00
2013-4-4,40.0,33.8,24.0,28.0,18.8,7.0,91,57,33,0.00,40.00,9,6,19,0.00
2013-4-5,42.0,30.2,16.0,14.0,8.2,6.0,66,41,24,0.00,40.00,6,4,12,0.00
2013-4-6,36.0,30.4,25.0,32.0,26.6,13.0,96,86,48,0.00,40.00,7,5,14,0.27
2013-4-7,43.0,34.6,29.0,32.0,28.9,27.0,96,81,54,0.00,40.00,5,3,12,0.07
2013-4-8,40.0,34.3,30.0,34.0,31.0,28.0,97,88,79,0.00,40.00,5,3,10,0.18
2013-4-9,42.0,31.5,23.0,29.0,17.6,11.0,89,59,33,0.00,40.00,6,4,15,0.01
2013-4-10,46.0,34.6,22.0,11.0,9.4,8.0,58,37,21,0.00,40.00,6,4,14,0.00
2013-4-11,31.0,25.8,23.0,22.0,13.7,7.0,87,61,43,0.00,40.00,11,8,22,0.00
2013-4-12,32.0,24.2,21.0,24.0,20.2,18.0,92,85,68,0.00,40.00,9,6,20,0.28
2013-4-13,37.0,26.2,20.0,22.0,19.0,18.0,90,75,49,0.00,40.00,5,4,12,0.12
2013-4-14,44.0,30.9,19.0,26.0,20.3,16.0,93,69,36,0.00,40.00,12,6,23,0.02
2013-4-15,39.0,32.0,27.0,32.0,29.1,25.0,96,89,76,0.00,40.00,12,6,24,0.11
2013-4-16,42.0,32.5,28.0,31.0,26.8,24.0,97,81,56,0.00,40.00,6,4,13,0.07
2013-4-17,36.0,31.5,28.0,29.0,26.1,25.0,94,80,69,0.00,40.00,7,4,14,0.02
2013-4-18,33.0,28.9,25.0,29.0,26.4,23.0,95,90,79,0.00,40.00,7,5,20,0.26
2013-4-19,31.0,24.9,16.0,27.0,17.0,3.0,94,74,37,0.00,40.00,12,8,26,0.26
2013-4-20,41.0,25.8,9.0,9.0,2.7,-1.0,66,39,22,0.00,40.00,5,4,12,0.14
2013-4-21,39.0,29.1,19.0,32.0,20.6,7.0,97,72,49,0.00,40.00,11,7,23,0.05
2013-4-22,39.0,33.5,29.0,32.0,24.5,20.0,97,72,47,0.00,40.00,7,5,14,0.11
2013-4-23,43.0,34.6,25.0,22.0,14.7,8.0,76,48,25,0.00,40.00,8,5,18,0.02
2013-4-24,47.0,33.3,19.0,22.0,17.7,8.0,83,56,28,0.00,40.00,6,3,11,0.00
2013-4-25,48.0,36.4,26.0,28.0,21.5,16.0,94,59,30,0.00,40.00,7,4,15,0.00
2013-4-26,66.0,50.4,35.0,33.0,27.2,19.0,70,43,25,0.00,40.00,8,5,16,0.00
2013-4-27,70.0,56.8,41.0,32.0,27.7,26.0,57,35,21,0.00,40.00,10,6,20,0.00
2013-4-28,63.0,54.4,47.0,47.0,39.3,27.0,83,58,35,0.00,40.00,10,6,19,0.01
2013-4-29,65.0,49.6,33.0,42.0,25.1,15.0,82,45,14,0.00,40.00,6,4,14,0.01
2013-4-30,63.0,53.5,45.0,52.0,35.5,23.0,90,55,22,0.00,40.00,12,8,29,0.09
2013-5-1,46.0,34.1,29.0,32.0,22.3,18.0,74,62,52,0.00,40.00,8,6,20,0.09
2013-5-2,41.0,32.3,28.0,20.0,18.7,18.0,68,58,43,0.00,40.00,6,4,14,0.00
2013-5-3,41.0,31.2,24.0,30.0,21.8,18.0,95,69,48,0.00,40.00,8,5,16,0.01
2013-5-4,36.0,32.7,29.0,34.0,30.8,27.0,96,93,91,0.00,40.00,6,4,11,0.27
2013-5-5,48.0,38.5,33.0,39.0,35.4,32.0,97,89,71,0.00,40.00,4,3,8,0.06
2013-5-6,70.0,54.6,38.0,47.0,42.1,37.0,96,67,40,0.00,40.00,6,3,12,0.01
2013-5-7,76.0,63.0,48.0,48.0,42.1,37.0,86,51,25,0.00,40.00,8,4,14,0.00
2013-5-8,76.0,58.3,50.0,56.0,44.5,38.0,90,63,28,0.00,40.00,5,4,16,0.10
2013-5-9,59.0,48.0,39.0,42.0,28.3,18.0,79,51,23,0.00,40.00,8,6,16,0.02
2013-5-10,59.0,45.9,29.0,41.0,20.6,11.0,95,42,17,0.00,40.00,8,5,21,0.09
2013-5-11,42.0,35.4,33.0,41.0,24.1,-99.9,95,67,48,0.00,40.00,13,7,27,0.10
2013-5-12,49.0,38.2,27.0,19.0,15.2,12.0,62,41,24,0.00,40.00,8,6,22,0.01
2013-5-13,57.0,44.1,30.0,33.0,22.4,14.0,59,43,26,0.00,40.00,13,7,23,0.01
2013-5-14,80.0,57.0,38.0,47.0,36.6,26.0,70,50,23,0.00,40.00,12,6,27,0.01
2013-5-15,72.0,59.4,47.0,48.0,39.8,33.0,82,52,24,0.00,40.00,10,6,27,0.01
2013-5-16,70.0,52.0,44.0,35.0,8.6,-99.9,61,36,21,0.00,40.00,5,4,12,0.01
2013-5-17,67.0,53.1,44.0,41.0,28.7,-99.9,82,48,28,0.00,40.00,9,6,18,0.00
2013-5-18,55.0,51.5,48.0,54.0,45.7,31.0,98,83,47,0.00,40.00,9,5,18,0.29
2013-5-19,55.0,53.4,52.0,55.0,52.9,51.0,99,98,95,0.00,40.00,10,7,20,0.85
2013-5-20,52.0,49.4,47.0,51.0,48.1,45.0,97,95,91,0.00,40.00,14,11,29,1.12
2013-5-21,47.0,43.1,41.0,46.0,42.0,40.0,98,96,94,0.00,40.00,9,7,19,0.67
2013-5-22,69.0,53.4,43.0,44.0,38.5,24.0,96,64,21,0.00,40.00,10,6,19,0.05
2013-5-23,60.0,48.5,35.0,36.0,25.0,20.0,67,42,22,0.00,40.00,6,5,14,0.00
2013-5-24,69.0,54.3,36.0,32.0,27.7,23.0,74,40,19,0.00,40.00,6,4,18,0.00
2013-5-25,66.0,55.6,44.0,36.0,32.7,28.0,56,43,30,0.00,40.00,9,5,16,0.00
2013-5-26,71.0,57.1,40.0,37.0,31.0,26.0,63,39,24,0.00,40.00,9,6,19,0.00
2013-5-27,71.0,58.3,44.0,40.0,33.4,25.0,55,40,27,0.00,40.00,11,6,20,0.00
2013-5-28,71.0,58.5,45.0,48.0,40.9,33.0,72,53,41,0.00,40.00,9,6,17,0.00
2013-5-29,80.0,63.9,51.0,58.0,49.6,42.0,96,62,38,0.00,40.00,7,5,16,0.18
2013-5-30,72.0,62.8,58.0,68.0,60.7,57.0,97,93,80,0.00,40.00,7,5,14,0.50
2013-5-31,76.0,64.0,56.0,62.0,57.8,49.0,97,82,45,0.00,40.00,10,6,20,0.18
2013-6-1,56.0,47.2,42.0,54.0,45.5,40.0,97,94,86,0.00,40.00,7,5,17,0.55
2013-6-2,60.0,48.7,36.0,40.0,33.8,29.0,96,61,31,0.00,40.00,8,5,19,0.01
2013-6-3,65.0,52.9,38.0,38.0,30.6,23.0,88,48,21,0.00,40.00,6,4,11,0.00
2013-6-4,63.0,54.2,46.0,39.0,29.8,22.0,74,41,23,0.00,40.00,7,4,16,0.00
2013-6-5,57.0,51.0,45.0,47.0,38.6,22.0,88,64,29,0.00,40.00,8,5,16,0.07
2013-6-6,59.0,50.6,41.0,46.0,43.2,38.0,91,77,56,0.00,40.00,5,4,10,0.01
2013-6-7,67.0,56.9,44.0,47.0,42.1,37.0,94,61,38,0.00,40.00,5,3,12,0.00
2013-6-8,76.0,65.1,49.0,46.0,39.9,34.0,81,43,24,0.00,40.00,8,5,15,0.00
2013-6-9,68.0,56.5,47.0,53.0,46.4,40.0,97,71,43,0.00,40.00,9,5,19,0.48
2013-6-10,68.0,58.1,52.0,58.0,55.0,51.0,98,90,71,0.00,40.00,5,3,10,0.63
2013-6-11,77.0,65.5,54.0,58.0,49.7,40.0,98,64,27,0.00,40.00,6,4,14,0.05
2013-6-12,74.0,68.6,58.0,51.0,45.9,43.0,75,45,34,0.00,40.00,7,5,15,0.00
2013-6-13,77.0,63.7,48.0,49.0,44.6,40.0,89,55,27,0.00,40.00,6,4,13,0.00
2013-6-14,77.0,64.0,48.0,50.0,44.0,36.0,89,51,30,0.00,40.00,8,6,16,0.00
2013-6-15,79.0,65.4,49.0,61.0,49.4,35.0,96,61,30,0.00,40.00,7,5,16,0.13
2013-6-16,77.0,63.0,53.0,61.0,52.0,47.0,92,70,37,0.00,40.00,9,4,18,0.09
2013-6-17,65.0,54.7,48.0,55.0,50.6,47.0,98,87,58,0.00,40.00,7,4,12,0.35
2013-6-18,75.0,61.6,43.0,49.0,39.5,34.0,93,50,24,0.00,40.00,5,4,13,0.01
2013-6-19,79.0,62.6,50.0,61.0,48.3,32.0,96,62,39,0.00,40.00,6,4,16,0.23
2013-6-20,71.0,63.9,60.0,64.0,60.3,57.0,97,89,70,0.00,40.00,7,5,13,0.81
2013-6-22,64.0,62.0,59.0,61.0,58.7,57.0,96,89,85,0.00,40.00,8,5,16,0.05
2013-6-23,76.0,64.2,58.0,66.0,60.0,56.0,98,88,59,0.00,40.00,9,5,20,0.18
2013-6-24,85.0,72.0,57.0,58.0,53.2,47.0,90,57,29,0.00,40.00,8,6,17,0.12
2013-6-25,90.0,77.4,62.0,67.0,56.0,51.0,85,52,27,0.00,40.00,6,4,14,0.00
2013-6-26,79.0,69.6,62.0,67.0,62.3,56.0,97,79,54,0.00,40.00,8,4,17,0.88
2013-6-27,81.0,69.8,59.0,64.0,58.2,53.0,96,70,42,0.00,40.00,9,5,20,0.10
2013-6-28,75.0,64.1,60.0,64.0,60.6,57.0,98,89,67,0.00,40.00,6,4,14,0.27
2013-6-29,73.0,65.0,57.0,58.0,51.4,46.0,95,65,40,0.00,40.00,7,4,17,0.01
2013-6-30,82.0,70.6,54.0,57.0,49.2,44.0,87,51,27,0.00,40.00,6,4,13,0.00
2013-7-1,82.0,74.3,57.0,56.0,48.4,44.0,87,42,27,0.00,40.00,5,4,12,0.00
2013-7-2,83.0,71.8,54.0,50.0,45.0,36.0,66,41,27,0.00,40.00,5,3,10,0.00
2013-7-3,87.0,71.8,53.0,55.0,46.4,38.0,59,43,26,0.00,40.00,5,4,13,0.00
2013-7-4,85.0,74.2,61.0,55.0,52.1,49.0,71,48,29,0.00,40.00,9,5,17,0.00
2013-7-5,86.0,76.6,69.0,60.0,57.3,54.0,64,52,37,0.00,40.00,9,7,20,0.00
2013-7-6,83.0,70.3,64.0,70.0,64.9,60.0,97,84,64,0.00,40.00,6,3,12,0.30
2013-7-7,77.0,69.2,63.0,70.0,65.9,60.0,98,90,75,0.00,40.00,6,3,13,0.30
2013-7-8,84.0,68.1,60.0,64.0,60.2,55.0,97,79,39,0.00,40.00,6,4,13,0.00
2013-7-9,74.0,66.4,58.0,67.0,62.3,57.0,96,87,68,0.00,40.00,7,4,15,0.41
2013-7-10,74.0,62.4,54.0,58.0,49.1,-99.9,96,69,36,0.00,40.00,7,5,17,0.12
2013-7-11,82.0,68.7,53.0,59.0,54.4,51.0,95,65,37,0.00,40.00,7,4,16,0.00
2013-7-12,87.0,75.7,66.0,65.0,60.1,54.0,71,59,47,0.00,40.00,12,7,22,0.00
2013-7-13,88.0,74.4,66.0,71.0,66.6,61.0,95,78,49,0.00,40.00,9,5,23,0.50
2013-7-14,71.0,67.8,67.0,66.0,64.0,60.0,97,88,75,0.00,40.00,6,4,12,0.25
2013-7-15,74.0,67.9,65.0,68.0,65.3,64.0,98,92,76,0.00,40.00,5,3,11,0.15
2013-7-16,90.0,83.9,71.0,68.0,64.3,62.0,78,53,41,0.00,40.00,9,7,21,0.08
2013-7-17,79.0,70.8,66.0,68.0,65.0,60.0,96,82,66,0.00,40.00,5,2,9,0.10
2013-7-18,87.0,68.9,61.0,76.0,65.3,57.0,97,89,66,0.00,40.00,6,4,22,0.90
2013-7-19,75.0,68.0,61.0,65.0,57.9,45.0,98,74,34,0.00,40.00,8,5,21,0.65
2013-7-20,68.0,57.4,47.0,47.0,42.7,-99.9,89,61,43,0.00,40.00,6,4,14,0.00
2013-7-21,75.0,61.0,45.0,51.0,47.4,43.0,92,64,39,0.00,40.00,7,4,14,0.00
2013-7-22,76.0,63.9,56.0,65.0,53.3,44.0,92,69,57,0.00,40.00,11,8,22,0.01
2013-7-23,70.0,59.3,50.0,50.0,47.2,46.0,86,66,45,0.00,40.00,8,4,15,0.01
2013-7-24,74.0,63.9,51.0,55.0,51.1,47.0,87,65,47,0.00,40.00,6,3,12,0.00
2013-7-25,71.0,61.5,55.0,62.0,55.9,52.0,95,83,60,0.00,40.00,5,3,10,0.11
2013-7-26,56.0,51.0,46.0,55.0,48.6,44.0,97,91,79,0.00,40.00,8,5,21,1.00
2013-7-27,51.0,47.8,45.0,49.0,46.0,43.0,96,94,91,0.00,40.00,7,5,21,0.56
2013-7-28,70.0,57.1,48.0,50.0,47.0,44.0,95,73,41,0.00,40.00,7,4,15,0.01
2013-7-29,74.0,66.3,48.0,53.0,49.1,44.0,90,57,37,0.00,40.00,5,3,11,0.00
2013-7-30,72.0,62.3,56.0,61.0,56.6,52.0,94,82,65,0.00,40.00,5,4,13,0.02
2013-7-31,74.0,64.6,56.0,58.0,52.4,46.0,95,68,41,0.00,40.00,9,5,20,0.02
2013-8-1,70.0,60.0,53.0,59.0,52.6,49.0,96,78,51,0.00,40.00,6,3,18,0.34
2013-8-2,70.0,59.0,49.0,56.0,50.3,47.0,97,75,46,0.00,40.00,8,4,18,0.25
2013-8-3,71.0,58.7,48.0,54.0,48.2,45.0,94,71,41,0.00,40.00,7,4,17,0.00
2013-8-4,73.0,65.7,47.0,51.0,45.6,42.0,90,50,35,0.00,40.00,5,3,12,0.00
2013-8-5,67.0,59.7,54.0,61.0,55.9,47.0,96,88,65,0.00,40.00,5,3,9,0.10
2013-8-6,66.0,59.0,53.0,61.0,57.0,52.0,97,93,75,0.00,40.00,5,3,9,0.15
2013-8-7,69.0,58.9,49.0,56.0,48.4,43.0,97,72,44,0.00,40.00,8,4,15,0.01
2013-8-8,66.0,56.4,47.0,49.0,45.8,43.0,93,70,45,0.00,40.00,7,4,17,0.00
2013-8-9,65.0,55.7,47.0,55.0,49.1,44.0,94,79,64,0.00,40.00,7,4,17,0.00
2013-8-10,74.0,62.3,50.0,55.0,49.8,47.0,97,68,39,0.00,40.00,5,3,11,0.00
2013-8-11,72.0,62.3,56.0,57.0,53.4,50.0,92,74,53,0.00,40.00,5,3,10,0.00
2013-8-12,69.0,59.1,51.0,55.0,48.3,42.0,94,71,39,0.00,40.00,6,4,14,0.00
2013-8-13,64.0,56.2,49.0,51.0,44.1,-99.9,92,67,48,0.00,40.00,5,3,11,0.00
2013-8-14,72.0,60.1,45.0,49.0,45.0,42.0,94,61,37,0.00,40.00,5,3,11,0.00
2013-8-15,78.0,62.4,50.0,53.0,26.9,-99.9,91,38,32,0.00,40.00,4,3,10,0.00
2013-8-16,79.0,71.0,65.0,63.0,50.0,-99.9,74,53,40,0.00,40.00,5,4,11,0.00
2013-8-17,79.0,68.2,57.0,58.0,53.1,-99.9,87,62,45,0.00,40.00,10,6,20,0.00
2013-8-18,79.0,70.9,63.0,61.0,57.1,54.0,79,63,49,0.00,40.00,9,7,18,0.00
2013-8-19,88.0,71.2,64.0,67.0,50.3,-99.9,83,62,35,0.00,40.00,6,4,13,0.00
2013-8-20,90.0,76.7,67.0,70.0,64.2,-99.9,94,71,46,0.00,40.00,7,5,17,0.00
2013-8-21,81.0,73.3,58.0,69.0,56.4,42.0,94,60,29,0.00,40.00,8,6,18,0.25
2013-8-22,77.0,66.9,52.0,52.0,46.3,42.0,80,51,29,0.00,40.00,5,3,10,0.20
2013-8-23,81.0,73.7,54.0,53.0,48.9,44.0,78,43,31,0.00,40.00,7,5,14,0.00
2013-8-24,86.0,74.0,62.0,68.0,59.8,-99.9,87,64,50,0.00,40.00,11,7,21,0.00
2013-8-25,92.0,81.1,69.0,75.0,68.7,63.0,95,69,40,0.00,40.00,8,4,16,0.45
2013-8-26,90.0,79.7,70.0,69.0,65.9,62.0,84,64,39,0.00,40.00,4,2,8,0.45
2013-8-27,88.0,74.9,66.0,70.0,66.1,64.0,97,77,46,0.00,40.00,5,2,8,0.00
2013-8-28,91.0,82.6,67.0,67.0,62.5,60.0,90,54,37,0.00,40.00,7,5,14,0.00
2013-8-29,75.0,68.3,63.0,68.0,65.4,62.0,97,91,72,0.00,40.00,12,5,32,1.08
2013-8-30,80.0,69.0,63.0,65.0,62.3,61.0,97,81,55,0.00,40.00,5,3,12,0.77
2013-8-31,82.0,65.6,60.0,73.0,59.6,-99.9,95,84,58,0.00,40.00,7,5,18,0.41
2013-9-1,63.0,57.9,50.0,61.0,55.1,47.0,97,91,80,0.00,40.00,7,5,16,0.58
2013-9-2,67.0,53.7,47.0,48.0,45.4,42.0,95,76,44,0.00,40.00,4,3,12,0.02
2013-9-3,80.0,64.4,46.0,60.0,52.1,43.0,94,68,43,0.00,40.00,7,5,16,0.00
2013-9-4,68.0,59.0,50.0,59.0,43.8,33.0,88,61,28,0.00,40.00,5,4,12,0.00
2013-9-5,76.0,65.2,48.0,51.0,45.6,41.0,89,53,33,0.00,40.00,6,4,12,0.00
2013-9-6,83.0,70.1,59.0,69.0,60.9,50.0,93,74,53,0.00,40.00,6,4,12,0.00
2013-9-7,78.0,67.3,57.0,68.0,56.8,-99.9,96,73,41,0.00,40.00,7,4,15,0.01
2013-9-8,68.0,58.5,50.0,53.0,50.4,49.0,95,76,52,0.00,40.00,8,4,15,0.00
2013-9-9,64.0,60.2,56.0,63.0,58.5,53.0,97,94,86,0.00,40.00,5,3,11,0.37
2013-9-10,69.0,63.4,58.0,66.0,61.5,57.0,98,94,84,0.00,40.00,5,3,12,0.22
2013-9-11,71.0,60.2,51.0,59.0,53.3,47.0,97,82,42,0.00,40.00,8,4,20,0.12
2013-9-12,59.0,51.7,47.0,51.0,45.0,40.0,97,80,52,0.00,40.00,7,4,15,0.10
2013-9-13,67.0,54.3,44.0,49.0,44.9,41.0,95,73,47,0.00,40.00,6,4,13,0.00
2013-9-14,72.0,57.9,49.0,57.0,48.7,-99.9,96,75,51,0.00,40.00,8,5,16,0.03
2013-9-15,59.0,51.0,42.0,55.0,42.7,34.0,96,76,41,0.00,40.00,6,4,14,0.13
2013-9-16,65.0,53.9,39.0,40.0,37.8,35.0,88,58,36,0.00,40.00,6,4,12,0.01
2013-9-17,69.0,55.7,42.0,48.0,44.3,38.0,90,67,45,0.00,40.00,9,6,20,0.00
2013-9-18,61.0,56.8,55.0,60.0,52.0,48.0,96,84,69,0.00,40.00,7,5,14,0.00
2013-9-19,68.0,64.4,61.0,66.0,63.2,60.0,97,96,93,0.00,40.00,6,4,15,0.04
2013-9-20,61.0,51.8,45.0,60.0,49.2,43.0,97,91,70,0.00,40.00,7,5,16,0.14
2013-9-21,54.0,43.4,36.0,43.0,35.3,-99.9,95,77,53,0.00,40.00,6,4,14,0.15
2013-9-22,60.0,45.1,34.0,44.0,38.4,32.0,95,80,50,0.00,40.00,9,6,17,0.00
2013-9-23,71.0,56.3,45.0,50.0,46.1,41.0,87,71,46,0.00,40.00,11,8,21,0.00
2013-9-24,73.0,59.7,50.0,52.0,49.3,47.0,90,71,44,0.00,40.00,7,5,14,0.00
2013-9-25,72.0,59.8,49.0,53.0,48.5,46.0,91,69,39,0.00,40.00,6,5,13,0.00
2013-9-26,73.0,58.0,48.0,54.0,50.2,47.0,96,77,51,0.00,40.00,10,7,20,0.00
2013-9-27,76.0,65.5,57.0,60.0,55.2,49.0,83,70,50,0.00,40.00,12,8,24,0.01
2013-9-28,70.0,59.4,45.0,59.0,51.0,-99.9,93,77,65,0.00,40.00,10,8,24,0.08
2013-9-29,71.0,54.5,43.0,47.0,42.6,40.0,92,68,35,0.00,40.00,8,5,16,0.02
2013-9-30,73.0,62.5,57.0,50.0,46.7,43.0,67,57,43,0.00,40.00,9,6,18,0.00
2013-10-1,60.0,56.7,53.0,32.0,30.0,28.0,44,37,30,0.00,40.00,7,6,22,0.01
2013-10-2,65.0,53.2,44.0,45.0,37.0,32.0,82,56,33,0.00,40.00,6,4,15,0.06
2013-10-3,62.0,52.1,45.0,47.0,44.6,43.0,95,77,50,0.00,40.00,6,3,13,0.01
2013-10-4,56.0,49.9,45.0,45.0,42.8,39.0,94,78,60,0.00,40.00,9,5,17,0.01
2013-10-5,48.0,42.8,41.0,43.0,39.8,36.0,96,89,68,0.00,40.00,9,8,21,0.37
2013-10-6,47.0,42.5,40.0,44.0,40.8,38.0,96,93,86,0.00,40.00,7,4,14,0.40
2013-10-7,59.0,45.8,37.0,45.0,37.7,34.0,95,76,45,0.00,40.00,6,4,15,0.01
2013-10-8,74.0,59.5,42.0,43.0,39.7,34.0,80,51,30,0.00,40.00,12,8,25,0.00
2013-10-9,73.0,61.9,54.0,50.0,46.1,42.0,79,57,42,0.00,40.00,7,5,16,0.00
2013-10-10,71.0,62.0,54.0,49.0,45.9,41.0,80,58,36,0.00,40.00,8,6,17,0.00
2013-10-11,70.0,59.8,54.0,52.0,47.3,41.0,80,64,45,0.00,40.00,13,8,25,0.00
2013-10-12,61.0,51.2,44.0,56.0,44.2,-99.9,93,80,68,0.00,40.00,11,8,23,0.09
2013-10-13,53.0,43.6,35.0,42.0,34.0,28.0,95,72,40,0.00,40.00,7,4,17,0.11
2013-10-14,49.0,44.1,36.0,41.0,36.0,29.0,95,74,55,0.00,40.00,5,3,10,0.36
2013-10-15,42.0,40.9,40.0,41.0,39.4,38.0,95,94,91,0.00,40.00,8,6,19,0.93
2013-10-16,53.0,43.2,34.0,37.0,33.9,29.0,92,71,42,0.00,40.00,5,3,10,0.01
2013-10-17,47.0,42.2,38.0,42.0,37.4,32.0,94,84,71,0.00,40.00,5,3,12,0.14
2013-10-18,47.0,37.7,30.0,37.0,31.4,27.0,94,80,46,0.00,40.00,5,3,16,0.04
2013-10-19,40.0,34.6,32.0,36.0,29.0,-99.9,94,83,69,0.00,40.00,4,2,11,0.03
2013-10-20,37.0,32.2,28.0,34.0,30.3,26.0,95,93,88,0.00,40.00,5,2,14,0.08
2013-10-21,33.0,29.4,25.0,31.0,26.9,22.0,94,90,82,0.00,40.00,7,5,15,0.15
2013-10-22,36.0,31.1,28.0,29.0,25.9,24.0,92,81,63,0.00,40.00,5,3,11,0.09
2013-10-23,33.0,29.5,28.0,28.0,26.1,25.0,93,87,73,0.00,40.00,6,4,12,0.17
2013-10-24,38.0,31.5,28.0,32.0,23.6,-99.9,98,84,66,0.00,40.00,6,3,12,0.04
2013-10-25,43.0,34.0,26.0,38.0,30.2,25.0,97,87,63,0.00,40.00,10,5,20,0.22
2013-10-26,39.0,34.5,29.0,35.0,28.5,-99.9,97,83,60,0.00,40.00,7,5,17,0.15
2013-10-27,40.0,33.3,26.0,30.0,25.8,15.0,85,74,63,0.00,40.00,6,5,19,0.01
2013-10-28,35.0,26.8,20.0,18.0,13.8,-99.9,81,62,44,0.00,40.00,5,3,14,0.00
2013-10-29,38.0,29.2,20.0,22.0,19.0,16.0,89,68,45,0.00,40.00,6,3,12,0.00
2013-10-30,42.0,33.8,26.0,38.0,30.5,22.0,99,88,74,0.00,40.00,6,3,11,0.01
2013-10-31,40.0,38.9,38.0,40.0,38.9,38.0,100,100,99,0.00,40.00,4,2,10,0.08
2013-11-1,38.0,35.5,32.0,38.0,35.1,31.0,100,98,91,0.00,40.00,4,3,10,0.05
2013-11-2,39.0,33.4,31.0,31.0,26.0,-99.9,96,79,57,0.00,40.00,4,2,7,0.01
2013-11-3,45.0,36.5,29.0,33.0,29.2,25.0,95,77,51,0.00,40.00,11,7,21,0.00
2013-11-4,43.0,38.8,32.0,37.0,34.0,30.0,98,84,67,0.00,40.00,10,8,20,0.22
2013-11-5,33.0,29.7,26.0,30.0,22.8,21.0,93,76,62,0.00,40.00,8,5,15,0.02
2013-11-6,28.0,27.1,26.0,23.0,21.6,20.0,85,80,74,0.00,40.00,7,4,18,0.00
2013-11-7,30.0,28.5,26.0,27.0,24.0,19.0,91,83,70,0.00,40.00,5,3,11,0.02
2013-11-8,37.0,29.1,19.0,32.0,22.2,16.0,99,76,54,0.00,40.00,9,5,16,0.01
2013-11-9,34.0,31.7,31.0,33.0,30.4,-99.9,100,98,97,0.00,40.00,7,4,19,0.03
2013-11-10,33.0,29.2,16.0,31.0,27.1,11.0,100,92,78,0.00,40.00,9,6,22,0.13
2013-11-11,21.0,14.7,7.0,11.0,6.4,3.0,84,70,56,0.00,40.00,8,5,20,0.01
2013-11-12,28.0,18.7,7.0,12.0,7.8,3.0,84,64,41,0.00,40.00,7,5,14,0.01
2013-11-13,41.0,32.1,20.0,32.0,22.8,9.0,80,69,58,0.00,40.00,9,7,18,0.28
2013-11-14,36.0,32.5,28.0,30.0,28.3,27.0,94,85,71,0.00,40.00,5,2,9,0.06
2013-11-15,44.0,36.9,32.0,35.0,31.7,28.0,99,82,63,0.00,40.00,8,5,16,0.01
2013-11-16,42.0,40.1,38.0,40.0,35.4,-99.9,100,86,74,0.00,40.00,8,6,19,0.08
2013-11-17,39.0,34.5,26.0,39.0,34.0,22.0,100,98,85,0.00,40.00,8,5,20,0.17
2013-11-18,26.0,21.7,20.0,22.0,16.1,13.0,89,79,69,0.00,40.00,9,6,18,0.01
2013-11-19,37.0,27.5,20.0,23.0,19.1,15.0,85,71,56,0.00,40.00,11,7,26,0.00
2013-11-20,45.0,39.1,34.0,26.0,24.4,22.0,72,56,45,0.00,40.00,13,7,26,0.00
2013-11-21,34.0,22.0,14.0,29.0,16.0,8.0,94,78,67,0.00,40.00,8,6,18,0.00
2013-11-22,15.0,11.5,4.0,11.0,5.6,-3.0,87,76,62,0.00,40.00,8,6,17,0.00
2013-11-23,11.0,3.0,-5.0,-1.0,-6.7,-99.9,77,65,48,0.00,40.00,8,5,18,0.00
2013-11-24,31.0,11.1,-6.0,18.0,1.0,-12.0,79,64,48,0.00,40.00,11,6,23,0.00
2013-11-25,34.0,28.3,17.0,28.0,21.0,8.0,91,74,59,0.00,40.00,10,8,24,0.00
2013-11-26,17.0,9.5,3.0,9.0,3.2,-3.0,84,75,67,0.00,40.00,8,5,19,0.00
2013-11-27,15.0,11.6,6.0,11.0,7.4,2.0,88,83,74,0.00,40.00,4,3,9,0.00
2013-11-28,24.0,15.0,11.0,16.0,10.8,8.0,89,84,69,0.00,40.00,3,2,8,0.11
2013-11-29,21.0,15.8,7.0,17.0,11.4,3.0,87,82,76,0.00,40.00,8,5,14,0.01
2013-11-30,27.0,23.8,21.0,22.0,18.8,-99.9,94,84,78,0.00,40.00,6,3,13,0.01
2013-12-1,27.0,22.8,20.0,23.0,21.0,18.0,95,92,85,0.00,40.00,3,2,6,0.00
2013-12-2,26.0,22.8,19.0,24.0,21.0,17.0,96,93,85,0.00,40.00,7,4,13,0.00
2013-12-3,27.0,21.6,13.0,26.0,19.7,10.0,96,92,87,0.00,40.00,8,7,19,0.00
2013-12-4,16.0,14.2,12.0,13.0,11.2,9.0,89,88,86,0.00,40.00,10,7,20,0.00
2013-12-5,15.0,7.9,1.0,12.0,3.4,-4.0,89,82,77,0.00,40.00,12,7,26,0.00
2013-12-6,3.0,-5.5,-14.0,-4.0,-12.1,-21.0,79,72,66,0.00,40.00,7,5,16,0.00
2013-12-7,-5.0,-13.7,-19.0,-14.0,-22.5,-99.9,71,66,62,0.00,40.00,6,4,14,0.00
2013-12-8,3.0,-9.1,-23.0,-1.0,-16.0,-31.0,81,71,64,0.00,40.00,5,4,11,0.00
2013-12-9,2.0,-5.1,-12.0,-2.0,-11.5,-19.0,81,73,66,0.00,40.00,8,4,17,0.00
2013-12-10,-3.0,-10.7,-17.0,-11.0,-17.8,-24.0,73,69,64,0.00,40.00,6,4,13,0.00
2013-12-11,-2.0,-12.2,-22.0,-11.0,-20.1,-30.0,71,67,62,0.00,40.00,6,4,14,0.00
2013-12-12,2.0,-5.4,-15.0,-5.0,-12.3,-22.0,75,71,65,0.00,40.00,6,5,14,0.00
2013-12-13,-5.0,-11.2,-16.0,-16.0,-19.2,-23.0,71,66,57,0.00,40.00,5,3,10,0.00
2013-12-14,5.0,-4.8,-12.0,-2.0,-12.4,-99.9,79,72,66,0.00,40.00,5,3,11,0.00
2013-12-15,-5.0,-13.9,-22.0,-13.0,-21.8,-30.0,75,67,60,0.00,40.00,5,3,11,0.00
2013-12-16,7.0,-1.2,-16.0,3.0,-6.8,-23.0,84,77,69,0.00,40.00,8,5,15,0.00
2013-12-17,16.0,8.1,-4.0,14.0,3.6,-9.0,90,81,71,0.00,40.00,8,5,17,0.00
2013-12-18,18.0,4.3,-11.0,10.0,-1.6,-17.0,86,76,65,0.00,40.00,7,4,14,0.00
2013-12-19,11.0,1.9,-4.0,6.0,-4.7,-9.0,83,73,61,0.00,40.00,7,4,18,0.00
2013-12-20,15.0,4.2,-8.0,9.0,-1.0,-14.0,85,79,69,0.00,40.00,5,3,10,0.00
2013-12-21,16.0,9.4,5.0,10.0,4.2,-99.9,85,82,78,0.00,40.00,5,2,11,0.00
2013-12-22,5.0,-0.2,-7.0,0.0,-6.0,-14.0,81,76,71,0.00,40.00,5,4,10,0.00
2013-12-23,-1.0,-9.2,-15.0,-13.0,-17.5,-22.0,72,67,55,0.00,40.00,4,3,10,0.00
2013-12-24,9.0,3.5,-15.0,2.0,-2.9,-22.0,83,74,67,0.00,40.00,10,7,21,0.00
2013-12-25,14.0,6.5,2.0,8.0,1.5,-4.0,83,79,73,0.00,40.00,6,4,14,0.00
2013-12-26,10.0,-0.3,-9.0,0.0,-6.8,-15.0,81,74,62,0.00,40.00,4,2,8,0.00
2013-12-27,32.0,20.9,-3.0,28.0,17.9,-8.0,95,88,79,0.00,40.00,9,5,17,0.00
2013-12-28,28.0,18.2,-2.0,28.0,14.7,-99.9,98,89,77,0.00,40.00,7,4,16,0.00
2013-12-29,-2.0,-15.4,-23.0,-7.0,-23.5,-31.0,77,66,57,0.00,40.00,6,4,15,0.00
2013-12-30,-5.0,-17.3,-25.0,-15.0,-25.5,-33.0,70,65,60,0.00,40.00,5,3,9,0.00
2013-12-31,-10.0,-21.6,-28.0,-21.0,-30.5,-37.0,66,62,56,0.00,40.00,6,3,11,0.00
2014-1-1,-7.0,-20.3,-27.0,-19.0,-29.5,-36.0,67,61,54,0.00,40.00,3,2,6,0.00
2014-1-2,-1.0,-9.5,-16.0,-14.0,-19.9,-25.0,67,60,51,0.00,40.00,3,2,7,0.00